sensor_id;sensor_type;location;lat;lon;timestamp;temperature;humidity
22917;DHT22;11624;53.250;7.456;2024-02-16T00:00:19;18.20;56.61
22917;DHT22;11624;53.250;7.456;2024-02-16T00:02:47;18.21;56.64
22917;DHT22;11624;53.250;7.456;2024-02-16T00:05:16;18.22;56.64
22917;DHT22;11624;53.250;7.456;2024-02-16T00:07:46;18.18;56.65
22917;DHT22;11624;53.250;7.456;2024-02-16T00:10:14;18.15;56.69
22917;DHT22;11624;53.250;7.456;2024-02-16T00:12:45;18.12;56.76
22917;DHT22;11624;53.250;7.456;2024-02-16T00:15:13;18.17;56.71
22917;DHT22;11624;53.250;7.456;2024-02-16T00:17:42;18.18;56.71
22917;DHT22;11624;53.250;7.456;2024-02-16T00:20:11;18.11;56.84
22917;DHT22;11624;53.250;7.456;2024-02-16T00:22:40;18.17;56.76
22917;DHT22;11624;53.250;7.456;2024-02-16T00:25:10;18.19;56.50
22917;DHT22;11624;53.250;7.456;2024-02-16T00:27:39;18.19;56.58
22917;DHT22;11624;53.250;7.456;2024-02-16T00:30:09;18.19;56.57
22917;DHT22;11624;53.250;7.456;2024-02-16T00:32:38;18.19;56.40
22917;DHT22;11624;53.250;7.456;2024-02-16T00:35:07;18.21;56.46
22917;DHT22;11624;53.250;7.456;2024-02-16T00:37:36;18.19;56.52
22917;DHT22;11624;53.250;7.456;2024-02-16T00:40:06;18.19;56.52
22917;DHT22;11624;53.250;7.456;2024-02-16T00:42:37;18.15;56.50
22917;DHT22;11624;53.250;7.456;2024-02-16T00:45:06;18.14;56.57
22917;DHT22;11624;53.250;7.456;2024-02-16T00:47:35;18.09;56.62
22917;DHT22;11624;53.250;7.456;2024-02-16T00:50:04;18.07;56.70
22917;DHT22;11624;53.250;7.456;2024-02-16T00:52:35;18.07;56.68
22917;DHT22;11624;53.250;7.456;2024-02-16T00:55:04;18.05;56.65
22917;DHT22;11624;53.250;7.456;2024-02-16T00:57:33;18.06;56.64
22917;DHT22;11624;53.250;7.456;2024-02-16T01:00:04;18.05;56.64
22917;DHT22;11624;53.250;7.456;2024-02-16T01:02:32;18.08;56.56
22917;DHT22;11624;53.250;7.456;2024-02-16T01:05:01;18.05;56.53
22917;DHT22;11624;53.250;7.456;2024-02-16T01:07:30;18.09;56.46
22917;DHT22;11624;53.250;7.456;2024-02-16T01:10:00;18.08;56.39
22917;DHT22;11624;53.250;7.456;2024-02-16T01:12:30;18.06;56.47
22917;DHT22;11624;53.250;7.456;2024-02-16T01:14:59;18.06;56.32
22917;DHT22;11624;53.250;7.456;2024-02-16T01:17:29;18.05;56.26
22917;DHT22;11624;53.250;7.456;2024-02-16T01:19:59;18.04;56.29
22917;DHT22;11624;53.250;7.456;2024-02-16T01:22:28;18.03;56.04
22917;DHT22;11624;53.250;7.456;2024-02-16T01:24:57;18.03;56.26
22917;DHT22;11624;53.250;7.456;2024-02-16T01:27:25;17.94;56.31
22917;DHT22;11624;53.250;7.456;2024-02-16T01:29:55;17.92;56.32
22917;DHT22;11624;53.250;7.456;2024-02-16T01:32:23;17.95;56.26
22917;DHT22;11624;53.250;7.456;2024-02-16T01:34:53;17.90;56.27
22917;DHT22;11624;53.250;7.456;2024-02-16T01:37:22;17.93;56.13
22917;DHT22;11624;53.250;7.456;2024-02-16T01:39:50;17.56;57.10
22917;DHT22;11624;53.250;7.456;2024-02-16T01:42:19;17.46;57.42
22917;DHT22;11624;53.250;7.456;2024-02-16T01:44:48;17.45;57.47
22917;DHT22;11624;53.250;7.456;2024-02-16T01:47:18;17.39;57.38
22917;DHT22;11624;53.250;7.456;2024-02-16T01:49:47;17.47;57.16
22917;DHT22;11624;53.250;7.456;2024-02-16T01:52:18;17.70;56.15
22917;DHT22;11624;53.250;7.456;2024-02-16T01:54:47;17.79;55.97
22917;DHT22;11624;53.250;7.456;2024-02-16T01:57:16;17.79;55.84
22917;DHT22;11624;53.250;7.456;2024-02-16T01:59:44;17.80;55.77
22917;DHT22;11624;53.250;7.456;2024-02-16T02:02:13;17.70;55.75
22917;DHT22;11624;53.250;7.456;2024-02-16T02:04:42;17.66;55.65
22917;DHT22;11624;53.250;7.456;2024-02-16T02:07:12;17.67;55.89
22917;DHT22;11624;53.250;7.456;2024-02-16T02:09:42;17.72;55.54
22917;DHT22;11624;53.250;7.456;2024-02-16T02:12:11;17.69;55.68
22917;DHT22;11624;53.250;7.456;2024-02-16T02:14:39;17.69;55.73
22917;DHT22;11624;53.250;7.456;2024-02-16T02:17:09;17.72;55.70
22917;DHT22;11624;53.250;7.456;2024-02-16T02:19:37;17.75;55.61
22917;DHT22;11624;53.250;7.456;2024-02-16T02:22:13;17.76;55.22
22917;DHT22;11624;53.250;7.456;2024-02-16T02:24:42;17.74;55.42
22917;DHT22;11624;53.250;7.456;2024-02-16T02:27:11;17.74;55.36
22917;DHT22;11624;53.250;7.456;2024-02-16T02:29:40;17.74;55.35
22917;DHT22;11624;53.250;7.456;2024-02-16T02:32:09;17.69;55.41
22917;DHT22;11624;53.250;7.456;2024-02-16T02:34:37;17.70;55.23
22917;DHT22;11624;53.250;7.456;2024-02-16T02:37:06;17.69;55.26
22917;DHT22;11624;53.250;7.456;2024-02-16T02:39:36;17.72;55.07
22917;DHT22;11624;53.250;7.456;2024-02-16T02:42:05;17.68;55.10
22917;DHT22;11624;53.250;7.456;2024-02-16T02:44:33;17.65;55.07
22917;DHT22;11624;53.250;7.456;2024-02-16T02:47:02;17.65;55.10
22917;DHT22;11624;53.250;7.456;2024-02-16T02:49:30;17.70;55.50
22917;DHT22;11624;53.250;7.456;2024-02-16T02:52:00;17.70;55.58
22917;DHT22;11624;53.250;7.456;2024-02-16T02:54:29;17.68;55.66
22917;DHT22;11624;53.250;7.456;2024-02-16T02:56:59;17.70;55.58
22917;DHT22;11624;53.250;7.456;2024-02-16T02:59:27;17.74;55.43
22917;DHT22;11624;53.250;7.456;2024-02-16T03:01:56;17.68;55.60
22917;DHT22;11624;53.250;7.456;2024-02-16T03:04:24;17.65;55.58
22917;DHT22;11624;53.250;7.456;2024-02-16T03:06:53;17.65;55.60
22917;DHT22;11624;53.250;7.456;2024-02-16T03:09:22;17.62;55.58
22917;DHT22;11624;53.250;7.456;2024-02-16T03:11:50;17.67;55.42
22917;DHT22;11624;53.250;7.456;2024-02-16T03:14:21;17.70;55.16
22917;DHT22;11624;53.250;7.456;2024-02-16T03:16:49;17.59;55.43
22917;DHT22;11624;53.250;7.456;2024-02-16T03:19:18;17.61;55.43
22917;DHT22;11624;53.250;7.456;2024-02-16T03:21:47;17.58;55.26
22917;DHT22;11624;53.250;7.456;2024-02-16T03:24:15;17.52;55.42
22917;DHT22;11624;53.250;7.456;2024-02-16T03:26:44;17.56;55.40
22917;DHT22;11624;53.250;7.456;2024-02-16T03:29:12;17.56;55.26
22917;DHT22;11624;53.250;7.456;2024-02-16T03:31:42;17.55;55.22
22917;DHT22;11624;53.250;7.456;2024-02-16T03:34:11;17.58;55.10
22917;DHT22;11624;53.250;7.456;2024-02-16T03:36:39;17.55;55.02
22917;DHT22;11624;53.250;7.456;2024-02-16T03:39:08;17.47;55.13
22917;DHT22;11624;53.250;7.456;2024-02-16T03:41:37;17.47;55.18
22917;DHT22;11624;53.250;7.456;2024-02-16T03:44:05;17.48;55.04
22917;DHT22;11624;53.250;7.456;2024-02-16T03:46:34;17.50;54.88
22917;DHT22;11624;53.250;7.456;2024-02-16T03:49:05;17.48;54.84
22917;DHT22;11624;53.250;7.456;2024-02-16T03:51:35;17.44;54.94
22917;DHT22;11624;53.250;7.456;2024-02-16T03:54:03;17.45;54.91
22917;DHT22;11624;53.250;7.456;2024-02-16T03:56:32;17.51;54.62
22917;DHT22;11624;53.250;7.456;2024-02-16T03:59:01;17.55;54.28
22917;DHT22;11624;53.250;7.456;2024-02-16T04:01:33;17.48;54.60
22917;DHT22;11624;53.250;7.456;2024-02-16T04:04:01;17.47;54.60
22917;DHT22;11624;53.250;7.456;2024-02-16T04:06:32;17.38;54.65
22917;DHT22;11624;53.250;7.456;2024-02-16T04:09:00;17.49;54.57
22917;DHT22;11624;53.250;7.456;2024-02-16T04:11:29;17.52;54.36
22917;DHT22;11624;53.250;7.456;2024-02-16T04:13:58;17.52;54.36
22917;DHT22;11624;53.250;7.456;2024-02-16T04:16:26;17.51;54.40
22917;DHT22;11624;53.250;7.456;2024-02-16T04:18:55;17.60;54.14
22917;DHT22;11624;53.250;7.456;2024-02-16T04:21:23;17.58;54.20
22917;DHT22;11624;53.250;7.456;2024-02-16T04:23:53;17.13;55.59
22917;DHT22;11624;53.250;7.456;2024-02-16T04:26:22;16.96;56.13
22917;DHT22;11624;53.250;7.456;2024-02-16T04:28:50;16.92;56.22
22917;DHT22;11624;53.250;7.456;2024-02-16T04:31:19;16.94;56.16
22917;DHT22;11624;53.250;7.456;2024-02-16T04:33:47;16.95;56.12
22917;DHT22;11624;53.250;7.456;2024-02-16T04:36:16;16.95;56.12
22917;DHT22;11624;53.250;7.456;2024-02-16T04:38:44;16.93;56.03
22917;DHT22;11624;53.250;7.456;2024-02-16T04:41:14;16.93;56.18
22917;DHT22;11624;53.250;7.456;2024-02-16T04:43:43;16.93;56.20
22917;DHT22;11624;53.250;7.456;2024-02-16T04:46:14;16.96;55.87
22917;DHT22;11624;53.250;7.456;2024-02-16T04:48:42;16.95;56.10
22917;DHT22;11624;53.250;7.456;2024-02-16T04:51:11;16.89;56.26
22917;DHT22;11624;53.250;7.456;2024-02-16T04:53:40;16.92;56.19
22917;DHT22;11624;53.250;7.456;2024-02-16T04:56:08;16.95;56.02
22917;DHT22;11624;53.250;7.456;2024-02-16T04:58:41;16.92;55.71
22917;DHT22;11624;53.250;7.456;2024-02-16T05:01:09;16.92;56.10
22917;DHT22;11624;53.250;7.456;2024-02-16T05:03:38;16.94;56.04
22917;DHT22;11624;53.250;7.456;2024-02-16T05:06:08;16.94;55.80
22917;DHT22;11624;53.250;7.456;2024-02-16T05:08:37;16.93;55.83
22917;DHT22;11624;53.250;7.456;2024-02-16T05:11:06;16.93;55.53
22917;DHT22;11624;53.250;7.456;2024-02-16T05:13:36;16.89;55.65
22917;DHT22;11624;53.250;7.456;2024-02-16T05:16:09;16.84;55.30
22917;DHT22;11624;53.250;7.456;2024-02-16T05:18:38;16.86;55.50
22917;DHT22;11624;53.250;7.456;2024-02-16T05:21:07;16.81;55.47
22917;DHT22;11624;53.250;7.456;2024-02-16T05:23:36;16.81;55.47
22917;DHT22;11624;53.250;7.456;2024-02-16T05:26:05;16.78;55.52
22917;DHT22;11624;53.250;7.456;2024-02-16T05:28:33;16.76;55.57
22917;DHT22;11624;53.250;7.456;2024-02-16T05:31:14;16.75;55.13
22917;DHT22;11624;53.250;7.456;2024-02-16T05:33:48;16.76;55.45
22917;DHT22;11624;53.250;7.456;2024-02-16T05:36:17;16.79;55.17
22917;DHT22;11624;53.250;7.456;2024-02-16T05:38:47;16.74;55.38
22917;DHT22;11624;53.250;7.456;2024-02-16T05:41:16;16.73;55.26
22917;DHT22;11624;53.250;7.456;2024-02-16T05:43:46;16.66;55.41
22917;DHT22;11624;53.250;7.456;2024-02-16T05:46:17;16.69;55.39
22917;DHT22;11624;53.250;7.456;2024-02-16T05:48:45;16.71;55.37
22917;DHT22;11624;53.250;7.456;2024-02-16T05:51:14;16.76;55.19
22917;DHT22;11624;53.250;7.456;2024-02-16T05:53:43;16.78;55.08
22917;DHT22;11624;53.250;7.456;2024-02-16T05:56:12;16.78;55.06
22917;DHT22;11624;53.250;7.456;2024-02-16T05:58:41;16.79;55.07
22917;DHT22;11624;53.250;7.456;2024-02-16T06:01:09;16.74;55.14
22917;DHT22;11624;53.250;7.456;2024-02-16T06:03:42;16.75;55.00
22917;DHT22;11624;53.250;7.456;2024-02-16T06:06:11;16.75;55.09
22917;DHT22;11624;53.250;7.456;2024-02-16T06:08:40;16.71;55.16
22917;DHT22;11624;53.250;7.456;2024-02-16T06:11:08;16.72;55.19
22917;DHT22;11624;53.250;7.456;2024-02-16T06:13:37;16.77;55.02
22917;DHT22;11624;53.250;7.456;2024-02-16T06:16:06;16.71;55.08
22917;DHT22;11624;53.250;7.456;2024-02-16T06:18:35;16.69;54.96
22917;DHT22;11624;53.250;7.456;2024-02-16T06:21:06;16.71;54.97
22917;DHT22;11624;53.250;7.456;2024-02-16T06:23:34;16.71;54.83
22917;DHT22;11624;53.250;7.456;2024-02-16T06:26:05;16.74;54.90
22917;DHT22;11624;53.250;7.456;2024-02-16T06:28:33;16.73;54.87
22917;DHT22;11624;53.250;7.456;2024-02-16T06:31:02;16.81;54.69
22917;DHT22;11624;53.250;7.456;2024-02-16T06:33:31;16.85;54.61
22917;DHT22;11624;53.250;7.456;2024-02-16T06:36:00;16.80;54.81
22917;DHT22;11624;53.250;7.456;2024-02-16T06:38:30;16.84;54.80
22917;DHT22;11624;53.250;7.456;2024-02-16T06:40:58;16.74;55.13
22917;DHT22;11624;53.250;7.456;2024-02-16T06:43:27;16.71;55.33
22917;DHT22;11624;53.250;7.456;2024-02-16T06:45:55;16.67;55.53
22917;DHT22;11624;53.250;7.456;2024-02-16T06:48:24;16.66;55.61
22917;DHT22;11624;53.250;7.456;2024-02-16T06:50:52;16.72;55.51
22917;DHT22;11624;53.250;7.456;2024-02-16T06:53:22;16.77;55.40
22917;DHT22;11624;53.250;7.456;2024-02-16T06:55:51;16.81;55.26
22917;DHT22;11624;53.250;7.456;2024-02-16T06:58:20;16.82;55.14
22917;DHT22;11624;53.250;7.456;2024-02-16T07:00:48;16.79;55.16
22917;DHT22;11624;53.250;7.456;2024-02-16T07:03:17;16.79;55.17
22917;DHT22;11624;53.250;7.456;2024-02-16T07:05:46;16.81;55.09
22917;DHT22;11624;53.250;7.456;2024-02-16T07:08:15;16.77;55.14
22917;DHT22;11624;53.250;7.456;2024-02-16T07:10:43;16.78;55.33
22917;DHT22;11624;53.250;7.456;2024-02-16T07:13:15;16.79;55.36
22917;DHT22;11624;53.250;7.456;2024-02-16T07:15:44;16.86;55.28
22917;DHT22;11624;53.250;7.456;2024-02-16T07:18:13;16.96;55.04
22917;DHT22;11624;53.250;7.456;2024-02-16T07:20:42;17.03;54.87
22917;DHT22;11624;53.250;7.456;2024-02-16T07:23:12;17.07;54.82
22917;DHT22;11624;53.250;7.456;2024-02-16T07:25:42;17.10;54.71
22917;DHT22;11624;53.250;7.456;2024-02-16T07:28:10;17.11;54.65
22917;DHT22;11624;53.250;7.456;2024-02-16T07:30:40;17.17;54.47
22917;DHT22;11624;53.250;7.456;2024-02-16T07:33:10;17.16;54.52
22917;DHT22;11624;53.250;7.456;2024-02-16T07:35:38;17.16;54.49
22917;DHT22;11624;53.250;7.456;2024-02-16T07:38:07;17.19;54.43
22917;DHT22;11624;53.250;7.456;2024-02-16T07:40:35;17.23;54.54
22917;DHT22;11624;53.250;7.456;2024-02-16T07:43:04;17.28;54.54
22917;DHT22;11624;53.250;7.456;2024-02-16T07:45:32;17.33;54.43
22917;DHT22;11624;53.250;7.456;2024-02-16T07:48:03;17.41;54.23
22917;DHT22;11624;53.250;7.456;2024-02-16T07:50:34;17.47;54.12
22917;DHT22;11624;53.250;7.456;2024-02-16T07:53:02;17.54;54.04
22917;DHT22;11624;53.250;7.456;2024-02-16T07:55:31;17.56;54.00
22917;DHT22;11624;53.250;7.456;2024-02-16T07:57:59;17.63;53.73
22917;DHT22;11624;53.250;7.456;2024-02-16T08:00:28;17.68;53.57
22917;DHT22;11624;53.250;7.456;2024-02-16T08:02:56;17.69;53.62
22917;DHT22;11624;53.250;7.456;2024-02-16T08:05:26;17.84;52.92
22917;DHT22;11624;53.250;7.456;2024-02-16T08:07:55;17.82;53.29
22917;DHT22;11624;53.250;7.456;2024-02-16T08:10:23;17.83;53.46
22917;DHT22;11624;53.250;7.456;2024-02-16T08:12:52;17.93;53.13
22917;DHT22;11624;53.250;7.456;2024-02-16T08:15:21;17.98;52.95
22917;DHT22;11624;53.250;7.456;2024-02-16T08:17:52;17.96;52.82
22917;DHT22;11624;53.250;7.456;2024-02-16T08:20:21;17.98;52.68
22917;DHT22;11624;53.250;7.456;2024-02-16T08:22:51;18.09;52.50
22917;DHT22;11624;53.250;7.456;2024-02-16T08:25:20;18.12;52.53
22917;DHT22;11624;53.250;7.456;2024-02-16T08:27:49;18.14;52.65
22917;DHT22;11624;53.250;7.456;2024-02-16T08:30:18;18.23;52.44
22917;DHT22;11624;53.250;7.456;2024-02-16T08:32:46;18.24;52.46
22917;DHT22;11624;53.250;7.456;2024-02-16T08:35:15;18.30;51.98
22917;DHT22;11624;53.250;7.456;2024-02-16T08:37:44;18.28;52.07
22917;DHT22;11624;53.250;7.456;2024-02-16T08:40:14;18.23;52.20
22917;DHT22;11624;53.250;7.456;2024-02-16T08:42:43;18.24;52.13
22917;DHT22;11624;53.250;7.456;2024-02-16T08:45:11;18.29;52.06
22917;DHT22;11624;53.250;7.456;2024-02-16T08:47:40;18.34;51.95
22917;DHT22;11624;53.250;7.456;2024-02-16T08:50:09;18.34;52.01
22917;DHT22;11624;53.250;7.456;2024-02-16T08:52:38;18.28;52.18
22917;DHT22;11624;53.250;7.456;2024-02-16T08:55:07;18.28;52.32
22917;DHT22;11624;53.250;7.456;2024-02-16T08:57:37;18.30;52.11
22917;DHT22;11624;53.250;7.456;2024-02-16T09:00:07;18.36;52.20
22917;DHT22;11624;53.250;7.456;2024-02-16T09:02:36;18.43;52.10
22917;DHT22;11624;53.250;7.456;2024-02-16T09:05:05;18.46;52.01
22917;DHT22;11624;53.250;7.456;2024-02-16T09:07:36;18.48;51.91
22917;DHT22;11624;53.250;7.456;2024-02-16T09:10:06;18.48;52.02
22917;DHT22;11624;53.250;7.456;2024-02-16T09:12:35;18.51;51.82
22917;DHT22;11624;53.250;7.456;2024-02-16T09:15:05;18.56;51.86
22917;DHT22;11624;53.250;7.456;2024-02-16T09:17:34;18.55;51.80
22917;DHT22;11624;53.250;7.456;2024-02-16T09:20:03;18.56;51.91
22917;DHT22;11624;53.250;7.456;2024-02-16T09:22:39;18.54;51.89
22917;DHT22;11624;53.250;7.456;2024-02-16T09:25:13;18.52;51.93
22917;DHT22;11624;53.250;7.456;2024-02-16T09:27:42;18.51;52.16
22917;DHT22;11624;53.250;7.456;2024-02-16T09:30:14;18.59;51.75
22917;DHT22;11624;53.250;7.456;2024-02-16T09:32:44;18.67;51.85
22917;DHT22;11624;53.250;7.456;2024-02-16T09:35:12;18.72;51.66
22917;DHT22;11624;53.250;7.456;2024-02-16T09:37:41;18.77;51.60
22917;DHT22;11624;53.250;7.456;2024-02-16T09:40:12;18.81;51.53
22917;DHT22;11624;53.250;7.456;2024-02-16T09:42:41;18.81;51.75
22917;DHT22;11624;53.250;7.456;2024-02-16T09:45:10;18.87;51.58
22917;DHT22;11624;53.250;7.456;2024-02-16T09:47:42;18.77;51.72
22917;DHT22;11624;53.250;7.456;2024-02-16T09:50:26;18.86;51.79
22917;DHT22;11624;53.250;7.456;2024-02-16T09:52:56;18.92;51.69
22917;DHT22;11624;53.250;7.456;2024-02-16T09:55:26;18.92;51.61
22917;DHT22;11624;53.250;7.456;2024-02-16T09:58:00;18.87;51.62
22917;DHT22;11624;53.250;7.456;2024-02-16T10:00:29;19.01;51.92
22917;DHT22;11624;53.250;7.456;2024-02-16T10:02:59;19.16;51.50
22917;DHT22;11624;53.250;7.456;2024-02-16T10:05:27;19.17;51.67
22917;DHT22;11624;53.250;7.456;2024-02-16T10:07:57;19.25;51.62
22917;DHT22;11624;53.250;7.456;2024-02-16T10:10:27;19.33;51.46
22917;DHT22;11624;53.250;7.456;2024-02-16T10:13:01;19.38;50.94
22917;DHT22;11624;53.250;7.456;2024-02-16T10:15:31;19.32;51.07
22917;DHT22;11624;53.250;7.456;2024-02-16T10:18:02;19.44;50.79
22917;DHT22;11624;53.250;7.456;2024-02-16T10:20:32;19.42;51.14
22917;DHT22;11624;53.250;7.456;2024-02-16T10:23:08;19.48;50.64
22917;DHT22;11624;53.250;7.456;2024-02-16T10:25:38;19.51;50.95
22917;DHT22;11624;53.250;7.456;2024-02-16T10:28:09;19.57;50.66
22917;DHT22;11624;53.250;7.456;2024-02-16T10:30:41;19.59;50.93
22917;DHT22;11624;53.250;7.456;2024-02-16T10:33:13;19.63;50.86
22917;DHT22;11624;53.250;7.456;2024-02-16T10:35:43;19.80;50.44
22917;DHT22;11624;53.250;7.456;2024-02-16T10:38:14;19.80;50.37
22917;DHT22;11624;53.250;7.456;2024-02-16T10:40:43;19.72;50.63
22917;DHT22;11624;53.250;7.456;2024-02-16T10:43:13;19.74;50.30
22917;DHT22;11624;53.250;7.456;2024-02-16T10:45:41;19.79;50.51
22917;DHT22;11624;53.250;7.456;2024-02-16T10:48:13;19.87;50.21
22917;DHT22;11624;53.250;7.456;2024-02-16T10:50:42;20.00;50.19
22917;DHT22;11624;53.250;7.456;2024-02-16T10:53:15;20.09;49.95
22917;DHT22;11624;53.250;7.456;2024-02-16T10:55:46;20.07;50.10
22917;DHT22;11624;53.250;7.456;2024-02-16T10:58:14;20.14;50.05
22917;DHT22;11624;53.250;7.456;2024-02-16T11:00:51;20.11;49.93
22917;DHT22;11624;53.250;7.456;2024-02-16T11:03:25;20.17;49.61
22917;DHT22;11624;53.250;7.456;2024-02-16T11:05:55;20.24;50.02
22917;DHT22;11624;53.250;7.456;2024-02-16T11:08:26;20.25;49.92
22917;DHT22;11624;53.250;7.456;2024-02-16T11:10:58;20.34;50.14
22917;DHT22;11624;53.250;7.456;2024-02-16T11:13:28;20.39;49.85
22917;DHT22;11624;53.250;7.456;2024-02-16T11:15:57;20.47;50.14
22917;DHT22;11624;53.250;7.456;2024-02-16T11:18:27;20.62;49.63
22917;DHT22;11624;53.250;7.456;2024-02-16T11:21:00;20.72;49.29
22917;DHT22;11624;53.250;7.456;2024-02-16T11:23:30;20.75;49.11
22917;DHT22;11624;53.250;7.456;2024-02-16T11:26:01;20.73;48.80
22917;DHT22;11624;53.250;7.456;2024-02-16T11:28:34;20.83;48.92
22917;DHT22;11624;53.250;7.456;2024-02-16T11:31:03;20.78;49.15
22917;DHT22;11624;53.250;7.456;2024-02-16T11:33:33;20.69;49.27
22917;DHT22;11624;53.250;7.456;2024-02-16T11:36:04;20.63;49.59
22917;DHT22;11624;53.250;7.456;2024-02-16T11:38:33;20.50;49.82
22917;DHT22;11624;53.250;7.456;2024-02-16T11:41:02;20.45;49.63
22917;DHT22;11624;53.250;7.456;2024-02-16T11:43:31;20.26;50.05
22917;DHT22;11624;53.250;7.456;2024-02-16T11:46:10;20.16;50.00
22917;DHT22;11624;53.250;7.456;2024-02-16T11:48:41;20.14;50.69
22917;DHT22;11624;53.250;7.456;2024-02-16T11:51:10;20.06;51.18
22917;DHT22;11624;53.250;7.456;2024-02-16T11:53:39;19.94;51.74
22917;DHT22;11624;53.250;7.456;2024-02-16T11:56:08;19.79;52.29
22917;DHT22;11624;53.250;7.456;2024-02-16T11:58:36;19.69;52.65
22917;DHT22;11624;53.250;7.456;2024-02-16T12:01:10;19.54;52.96
22917;DHT22;11624;53.250;7.456;2024-02-16T12:03:41;19.55;53.25
22917;DHT22;11624;53.250;7.456;2024-02-16T12:06:20;19.53;53.00
22917;DHT22;11624;53.250;7.456;2024-02-16T12:08:50;19.55;53.39
22917;DHT22;11624;53.250;7.456;2024-02-16T12:11:20;19.53;53.56
22917;DHT22;11624;53.250;7.456;2024-02-16T12:13:50;19.45;53.87
22917;DHT22;11624;53.250;7.456;2024-02-16T12:16:19;19.52;53.81
22917;DHT22;11624;53.250;7.456;2024-02-16T12:18:49;19.47;53.90
22917;DHT22;11624;53.250;7.456;2024-02-16T12:21:18;19.45;54.07
22917;DHT22;11624;53.250;7.456;2024-02-16T12:23:48;19.39;54.30
22917;DHT22;11624;53.250;7.456;2024-02-16T12:26:17;19.29;54.62
22917;DHT22;11624;53.250;7.456;2024-02-16T12:28:45;19.24;54.90
22917;DHT22;11624;53.250;7.456;2024-02-16T12:31:18;19.14;55.03
22917;DHT22;11624;53.250;7.456;2024-02-16T12:33:48;19.01;56.15
22917;DHT22;11624;53.250;7.456;2024-02-16T12:36:18;18.88;56.63
22917;DHT22;11624;53.250;7.456;2024-02-16T12:38:46;18.72;57.49
22917;DHT22;11624;53.250;7.456;2024-02-16T12:41:15;18.79;57.30
22917;DHT22;11624;53.250;7.456;2024-02-16T12:43:43;18.94;57.00
22917;DHT22;11624;53.250;7.456;2024-02-16T12:46:12;18.94;56.97
22917;DHT22;11624;53.250;7.456;2024-02-16T12:48:40;18.82;57.42
22917;DHT22;11624;53.250;7.456;2024-02-16T12:51:13;18.82;57.62
22917;DHT22;11624;53.250;7.456;2024-02-16T12:53:42;18.82;57.55
22917;DHT22;11624;53.250;7.456;2024-02-16T12:56:11;18.84;57.28
22917;DHT22;11624;53.250;7.456;2024-02-16T12:58:39;18.80;57.29
22917;DHT22;11624;53.250;7.456;2024-02-16T13:01:08;18.81;57.25
22917;DHT22;11624;53.250;7.456;2024-02-16T13:03:50;18.79;57.15
22917;DHT22;11624;53.250;7.456;2024-02-16T13:06:20;18.79;57.30
22917;DHT22;11624;53.250;7.456;2024-02-16T13:08:55;18.80;57.17
22917;DHT22;11624;53.250;7.456;2024-02-16T13:11:23;18.76;57.33
22917;DHT22;11624;53.250;7.456;2024-02-16T13:13:52;18.81;57.26
22917;DHT22;11624;53.250;7.456;2024-02-16T13:16:20;18.82;57.17
22917;DHT22;11624;53.250;7.456;2024-02-16T13:18:49;18.78;57.40
22917;DHT22;11624;53.250;7.456;2024-02-16T13:21:18;18.80;57.51
22917;DHT22;11624;53.250;7.456;2024-02-16T13:23:48;18.86;57.45
22917;DHT22;11624;53.250;7.456;2024-02-16T13:26:16;18.85;57.54
22917;DHT22;11624;53.250;7.456;2024-02-16T13:28:45;18.79;57.50
22917;DHT22;11624;53.250;7.456;2024-02-16T13:31:13;18.78;57.51
22917;DHT22;11624;53.250;7.456;2024-02-16T13:33:41;18.74;57.51
22917;DHT22;11624;53.250;7.456;2024-02-16T13:36:10;18.69;57.66
22917;DHT22;11624;53.250;7.456;2024-02-16T13:38:38;18.68;57.72
22917;DHT22;11624;53.250;7.456;2024-02-16T13:41:08;18.69;57.59
22917;DHT22;11624;53.250;7.456;2024-02-16T13:43:37;18.59;57.87
22917;DHT22;11624;53.250;7.456;2024-02-16T13:46:09;18.62;57.58
22917;DHT22;11624;53.250;7.456;2024-02-16T13:48:37;18.61;57.86
22917;DHT22;11624;53.250;7.456;2024-02-16T13:51:08;18.59;57.74
22917;DHT22;11624;53.250;7.456;2024-02-16T13:53:37;18.51;58.00
22917;DHT22;11624;53.250;7.456;2024-02-16T13:56:07;18.57;57.76
22917;DHT22;11624;53.250;7.456;2024-02-16T13:58:36;18.52;57.92
22917;DHT22;11624;53.250;7.456;2024-02-16T14:01:05;18.43;58.07
22917;DHT22;11624;53.250;7.456;2024-02-16T14:03:35;18.30;58.29
22917;DHT22;11624;53.250;7.456;2024-02-16T14:06:06;18.23;58.49
22917;DHT22;11624;53.250;7.456;2024-02-16T14:08:37;18.18;58.77
22917;DHT22;11624;53.250;7.456;2024-02-16T14:11:05;18.10;58.96
22917;DHT22;11624;53.250;7.456;2024-02-16T14:13:37;18.08;59.19
22917;DHT22;11624;53.250;7.456;2024-02-16T14:16:06;18.03;59.57
22917;DHT22;11624;53.250;7.456;2024-02-16T14:18:34;18.04;59.54
22917;DHT22;11624;53.250;7.456;2024-02-16T14:21:06;18.08;59.16
22917;DHT22;11624;53.250;7.456;2024-02-16T14:23:35;18.08;59.64
22917;DHT22;11624;53.250;7.456;2024-02-16T14:26:03;18.08;59.70
22917;DHT22;11624;53.250;7.456;2024-02-16T14:28:32;18.12;59.44
22917;DHT22;11624;53.250;7.456;2024-02-16T14:31:02;18.09;59.44
22917;DHT22;11624;53.250;7.456;2024-02-16T14:33:30;18.04;59.47
22917;DHT22;11624;53.250;7.456;2024-02-16T14:36:01;18.03;59.35
22917;DHT22;11624;53.250;7.456;2024-02-16T14:38:30;17.92;59.41
22917;DHT22;11624;53.250;7.456;2024-02-16T14:40:58;17.90;59.57
22917;DHT22;11624;53.250;7.456;2024-02-16T14:43:31;17.89;59.64
22917;DHT22;11624;53.250;7.456;2024-02-16T14:46:01;17.90;59.76
22917;DHT22;11624;53.250;7.456;2024-02-16T14:48:31;17.89;59.73
22917;DHT22;11624;53.250;7.456;2024-02-16T14:51:00;17.94;59.80
22917;DHT22;11624;53.250;7.456;2024-02-16T14:53:29;17.98;59.67
22917;DHT22;11624;53.250;7.456;2024-02-16T14:56:00;17.99;59.73
22917;DHT22;11624;53.250;7.456;2024-02-16T14:58:30;17.97;59.75
22917;DHT22;11624;53.250;7.456;2024-02-16T15:01:00;18.05;59.55
22917;DHT22;11624;53.250;7.456;2024-02-16T15:03:30;18.06;59.44
22917;DHT22;11624;53.250;7.456;2024-02-16T15:05:58;18.04;59.51
22917;DHT22;11624;53.250;7.456;2024-02-16T15:08:27;18.03;59.26
22917;DHT22;11624;53.250;7.456;2024-02-16T15:10:55;18.07;59.02
22917;DHT22;11624;53.250;7.456;2024-02-16T15:13:24;18.06;59.17
22917;DHT22;11624;53.250;7.456;2024-02-16T15:15:54;18.08;59.16
22917;DHT22;11624;53.250;7.456;2024-02-16T15:18:23;18.13;58.85
22917;DHT22;11624;53.250;7.456;2024-02-16T15:20:53;18.12;58.92
22917;DHT22;11624;53.250;7.456;2024-02-16T15:23:22;18.15;58.80
22917;DHT22;11624;53.250;7.456;2024-02-16T15:25:50;18.14;58.76
22917;DHT22;11624;53.250;7.456;2024-02-16T15:28:19;18.17;58.83
22917;DHT22;11624;53.250;7.456;2024-02-16T15:30:47;18.12;59.03
22917;DHT22;11624;53.250;7.456;2024-02-16T15:33:16;18.00;59.36
22917;DHT22;11624;53.250;7.456;2024-02-16T15:35:44;17.95;59.54
22917;DHT22;11624;53.250;7.456;2024-02-16T15:38:14;17.95;59.56
22917;DHT22;11624;53.250;7.456;2024-02-16T15:40:43;18.10;59.18
22917;DHT22;11624;53.250;7.456;2024-02-16T15:43:12;18.20;58.83